Time;durP1;ratioP1;P1;durP2;ratioP2;P2;SDS_P1;SDS_P2;PMS_P1;PMS_P2;Temp;Humidity;BMP_temperature;BMP_pressure;BME280_temperature;BME280_humidity;BME280_pressure;Samples;Min_cycle;Max_cycle;Signal;HPM_P1;HPM_P2
2023/09/10 00:01:20;;;;;;;4.10;3.80;;;;;;;20.27;60.56;99831.38;5094756;28;20551;-65
2023/09/10 00:03:46;;;;;;;4.23;3.93;;;;;;;20.28;60.66;99824.91;5094812;28;20573;-65
2023/09/10 00:06:13;;;;;;;5.30;4.80;;;;;;;20.29;60.72;99829.22;5094487;28;20728;-65
2023/09/10 00:08:40;;;;;;;6.17;4.70;;;;;;;20.29;60.55;99821.13;5094119;28;20252;-65
2023/09/10 00:11:06;;;;;;;5.73;4.70;;;;;;;20.29;60.67;99821.13;5094817;28;20188;-65
2023/09/10 00:13:34;;;;;;;6.07;3.97;;;;;;;20.30;60.49;99822.78;5094710;28;20191;-65
2023/09/10 00:16:02;;;;;;;7.47;4.77;;;;;;;20.29;60.55;99826.53;5094779;28;20619;-65
2023/09/10 00:18:28;;;;;;;5.60;5.17;;;;;;;20.30;60.77;99820.09;5094378;28;20370;-65
2023/09/10 00:20:55;;;;;;;4.60;4.20;;;;;;;20.26;61.07;99821.66;5094699;28;20252;-65
2023/09/10 00:23:22;;;;;;;8.40;4.63;;;;;;;20.26;61.01;99827.03;5094275;28;20195;-65
2023/09/10 00:25:49;;;;;;;6.40;4.60;;;;;;;20.27;61.27;99820.56;5094453;28;20227;-65
2023/09/10 00:28:15;;;;;;;5.20;4.90;;;;;;;20.27;61.37;99824.09;5094595;28;20192;-65
2023/09/10 00:30:43;;;;;;;5.37;4.30;;;;;;;20.27;61.36;99828.66;5094252;28;20249;-65
2023/09/10 00:33:10;;;;;;;5.37;4.63;;;;;;;20.29;61.53;99823.81;5094174;28;20724;-65
2023/09/10 00:35:37;;;;;;;6.27;4.23;;;;;;;20.22;61.40;99821.31;5094407;28;20605;-65
2023/09/10 00:38:03;;;;;;;4.00;3.70;;;;;;;20.09;62.08;99826.25;5094456;28;20268;-65
2023/09/10 00:40:30;;;;;;;4.00;3.63;;;;;;;20.05;62.09;99825.13;5093922;28;20226;-65
2023/09/10 00:42:57;;;;;;;4.20;3.80;;;;;;;20.03;61.90;99821.84;5093970;28;20677;-65
2023/09/10 00:45:24;;;;;;;5.40;3.57;;;;;;;20.05;61.49;99819.72;5093837;28;20327;-65
2023/09/10 00:47:52;;;;;;;6.23;3.73;;;;;;;20.06;61.66;99826.75;5094405;28;20199;-65
2023/09/10 00:50:19;;;;;;;3.87;3.57;;;;;;;20.13;61.79;99811.19;5094006;28;20255;-65
2023/09/10 00:52:49;;;;;;;4.27;3.60;;;;;;;20.20;61.16;99825.31;5094164;28;20311;-65
2023/09/10 00:55:17;;;;;;;5.00;3.63;;;;;;;20.13;60.97;99813.91;5093950;28;20257;-65
2023/09/10 00:57:44;;;;;;;3.93;3.60;;;;;;;20.04;60.48;99810.81;5093728;28;20219;-65
2023/09/10 01:00:13;;;;;;;5.37;3.40;;;;;;;19.95;60.88;99822.25;5093915;28;20195;-65
2023/09/10 01:02:43;;;;;;;5.53;3.40;;;;;;;19.80;61.31;99813.94;5094248;28;20278;-65
2023/09/10 01:05:12;;;;;;;3.63;3.33;;;;;;;19.60;61.41;99821.75;5093850;28;20183;-65
2023/09/10 01:07:39;;;;;;;4.37;3.37;;;;;;;19.42;61.90;99808.50;5093771;28;20221;-65
2023/09/10 01:10:06;;;;;;;7.60;3.40;;;;;;;19.34;63.09;99817.00;5093239;28;20236;-65
2023/09/10 01:12:42;;;;;;;4.17;3.53;;;;;;;19.28;62.43;99813.41;5093368;28;20192;-65
2023/09/10 01:15:18;;;;;;;3.50;3.30;;;;;;;19.13;63.91;99807.75;5093254;28;20718;-65
2023/09/10 01:17:53;;;;;;;3.40;3.20;;;;;;;19.20;64.16;99804.91;5093284;28;20760;-65
2023/09/10 01:20:40;;;;;;;5.33;3.60;;;;;;;19.07;63.12;99810.59;5092524;28;20203;-65
2023/09/10 01:23:12;;;;;;;4.13;3.47;;;;;;;19.06;64.29;99806.25;5093072;28;20273;-65
2023/09/10 01:25:41;;;;;;;5.00;4.00;;;;;;;19.00;63.50;99805.38;5093519;28;20237;-65
2023/09/10 01:28:08;;;;;;;3.27;3.07;;;;;;;18.93;64.13;99798.47;5093024;28;20198;-65
2023/09/10 01:30:35;;;;;;;4.03;2.97;;;;;;;18.92;63.75;99803.06;5093019;28;20191;-65
2023/09/10 01:33:11;;;;;;;3.70;3.40;;;;;;;18.92;63.92;99808.47;5093103;28;20198;-65
2023/09/10 01:35:45;;;;;;;5.47;3.30;;;;;;;18.79;63.79;99807.94;5093422;28;20253;-65
2023/09/10 01:38:18;;;;;;;6.03;3.73;;;;;;;18.70;64.16;99804.00;5093175;28;20297;-67
2023/09/10 01:40:52;;;;;;;3.60;3.27;;;;;;;18.60;64.62;99803.78;5092782;28;20216;-64
2023/09/10 01:43:19;;;;;;;4.03;3.60;;;;;;;18.67;65.25;99804.47;5092861;28;20243;-64
2023/09/10 01:45:48;;;;;;;3.80;3.53;;;;;;;18.69;64.99;99810.41;5092968;28;20193;-64
2023/09/10 01:48:14;;;;;;;3.73;3.30;;;;;;;18.74;65.78;99799.78;5093041;28;20201;-65
2023/09/10 01:50:41;;;;;;;3.80;3.43;;;;;;;18.81;65.29;99803.09;5092925;28;20202;-65
2023/09/10 01:53:08;;;;;;;4.70;3.90;;;;;;;18.75;64.95;99804.09;5092994;28;20206;-65
2023/09/10 01:55:34;;;;;;;3.40;3.07;;;;;;;18.76;65.47;99798.47;5092536;28;20251;-65
2023/09/10 01:58:03;;;;;;;3.80;3.27;;;;;;;18.83;66.23;99798.31;5092545;28;20215;-65
2023/09/10 02:00:29;;;;;;;3.23;2.97;;;;;;;18.75;64.51;99799.50;5092653;28;20299;-65
2023/09/10 02:02:56;;;;;;;6.77;3.50;;;;;;;18.67;64.96;99793.72;5092496;28;20702;-65
2023/09/10 02:05:23;;;;;;;5.00;3.57;;;;;;;18.50;65.02;99795.53;5092316;28;20670;-66
2023/09/10 02:07:49;;;;;;;5.07;3.13;;;;;;;18.31;65.52;99799.41;5092406;28;20201;-65
2023/09/10 02:10:16;;;;;;;3.23;3.00;;;;;;;18.18;66.64;99797.00;5092323;28;20187;-65
2023/09/10 02:12:43;;;;;;;4.97;3.27;;;;;;;18.11;66.82;99801.69;5092606;28;20223;-66
2023/09/10 02:15:12;;;;;;;6.40;2.87;;;;;;;18.06;66.59;99797.03;5092625;28;20249;-65
2023/09/10 02:17:39;;;;;;;3.37;2.67;;;;;;;18.00;66.08;99802.50;5092307;28;20223;-65
2023/09/10 02:20:09;;;;;;;4.37;2.73;;;;;;;17.73;66.77;99804.06;5092516;28;20236;-65
2023/09/10 02:22:37;;;;;;;3.23;2.60;;;;;;;17.74;66.78;99803.00;5092437;28;20605;-65
2023/09/10 02:25:05;;;;;;;6.50;2.60;;;;;;;17.68;67.26;99810.13;5092585;28;20273;-66
2023/09/10 02:27:32;;;;;;;3.83;2.67;;;;;;;17.83;67.55;99806.97;5091973;28;20195;-65
2023/09/10 02:29:58;;;;;;;3.27;2.33;;;;;;;17.98;67.07;99810.00;5092109;28;20635;-65
2023/09/10 02:32:26;;;;;;;6.50;2.90;;;;;;;18.02;66.29;99813.84;5092006;28;20208;-65
2023/09/10 02:34:53;;;;;;;3.00;2.80;;;;;;;17.85;66.42;99810.25;5092113;28;20196;-65
2023/09/10 02:37:20;;;;;;;4.47;3.10;;;;;;;17.70;67.27;99813.41;5091806;28;20679;-66
2023/09/10 02:39:47;;;;;;;3.20;3.00;;;;;;;17.60;68.21;99813.16;5091899;28;20210;-66
2023/09/10 02:42:16;;;;;;;3.07;2.87;;;;;;;17.53;69.05;99817.03;5092331;28;20183;-65
2023/09/10 02:44:43;;;;;;;3.77;2.87;;;;;;;17.53;68.96;99817.03;5092235;28;20216;-65
2023/09/10 02:47:10;;;;;;;3.80;3.17;;;;;;;17.56;68.46;99817.38;5091944;28;20259;-65
2023/09/10 02:49:38;;;;;;;3.13;2.93;;;;;;;17.58;68.06;99814.47;5092035;28;20195;-65
2023/09/10 02:52:05;;;;;;;3.83;2.90;;;;;;;17.58;68.89;99806.41;5092043;28;20219;-65
2023/09/10 02:54:35;;;;;;;3.03;2.73;;;;;;;17.70;68.46;99813.41;5092117;28;20195;-65
2023/09/10 02:57:02;;;;;;;5.17;3.40;;;;;;;17.83;67.48;99812.34;5092042;28;20241;-65
2023/09/10 02:59:29;;;;;;;6.53;2.90;;;;;;;17.71;67.79;99803.47;5092141;28;20278;-64
2023/09/10 03:01:56;;;;;;;5.60;2.50;;;;;;;17.67;67.57;99807.69;5092068;28;20195;-65
2023/09/10 03:04:22;;;;;;;4.10;2.70;;;;;;;17.62;68.16;99811.09;5092072;28;20252;-65
2023/09/10 03:06:51;;;;;;;5.57;2.70;;;;;;;17.73;68.31;99806.75;5091582;28;20190;-65
2023/09/10 03:09:18;;;;;;;3.07;2.60;;;;;;;17.82;68.44;99805.34;5092074;28;20349;-65
2023/09/10 03:11:46;;;;;;;7.30;2.60;;;;;;;17.80;66.83;99816.31;5091958;28;20196;-65
2023/09/10 03:14:13;;;;;;;3.03;2.67;;;;;;;17.75;66.89;99818.06;5091635;28;20195;-65
2023/09/10 03:16:40;;;;;;;5.43;2.43;;;;;;;17.66;66.88;99822.16;5091818;28;20187;-65
2023/09/10 03:19:07;;;;;;;2.97;2.70;;;;;;;17.53;67.08;99814.34;5091809;28;20215;-65
2023/09/10 03:21:36;;;;;;;4.87;2.63;;;;;;;17.54;67.91;99814.13;5091794;28;20196;-65
2023/09/10 03:24:05;;;;;;;5.43;2.60;;;;;;;17.66;67.79;99824.84;5091793;28;20252;-65
2023/09/10 03:26:32;;;;;;;4.80;2.80;;;;;;;17.82;67.30;99827.69;5091690;28;20278;-65
2023/09/10 03:28:58;;;;;;;3.10;2.90;;;;;;;17.97;67.48;99824.50;5091968;28;20195;-65
2023/09/10 03:31:25;;;;;;;4.87;2.63;;;;;;;18.15;66.45;99816.28;5091575;28;20259;-65
2023/09/10 03:33:52;;;;;;;3.10;2.90;;;;;;;18.24;65.16;99817.53;5091792;28;20208;-65
2023/09/10 03:36:18;;;;;;;2.60;2.50;;;;;;;18.23;65.58;99826.69;5091738;28;20187;-65
2023/09/10 03:38:45;;;;;;;3.53;2.50;;;;;;;18.41;64.65;99821.97;5091622;28;20276;-65
2023/09/10 03:41:13;;;;;;;3.10;2.80;;;;;;;18.63;63.57;99824.84;5091268;28;20219;-65
2023/09/10 03:43:41;;;;;;;2.57;2.47;;;;;;;18.58;62.07;99827.44;5092542;28;20243;-65
2023/09/10 03:46:07;;;;;;;2.60;2.40;;;;;;;18.65;61.54;99822.72;5095417;28;20279;-65
2023/09/10 03:48:34;;;;;;;2.67;2.43;;;;;;;18.59;60.01;99812.94;5095291;28;20207;-65
2023/09/10 03:51:01;;;;;;;2.37;2.27;;;;;;;18.40;62.25;99823.06;5095249;28;20249;-65
2023/09/10 03:53:27;;;;;;;3.00;2.80;;;;;;;18.34;62.23;99825.88;5095288;28;20227;-65
2023/09/10 03:55:54;;;;;;;3.03;2.40;;;;;;;18.28;61.76;99824.91;5094903;28;20191;-65
2023/09/10 03:58:22;;;;;;;4.33;2.87;;;;;;;18.07;62.19;99820.16;5094623;28;20276;-64
2023/09/10 04:00:49;;;;;;;3.50;2.20;;;;;;;17.93;62.91;99820.66;5095027;28;20192;-64
2023/09/10 04:03:15;;;;;;;3.47;2.67;;;;;;;17.73;64.39;99828.25;5094972;28;20187;-65
2023/09/10 04:05:42;;;;;;;2.70;2.50;;;;;;;17.59;64.61;99824.16;5094924;28;20187;-65
2023/09/10 04:08:09;;;;;;;4.57;2.40;;;;;;;17.58;65.13;99819.84;5094330;28;20763;-65
2023/09/10 04:10:35;;;;;;;2.87;2.60;;;;;;;17.52;65.30;99828.84;5094684;28;20199;-65
2023/09/10 04:13:02;;;;;;;5.90;2.20;;;;;;;17.63;65.50;99825.31;5094758;28;20196;-65
2023/09/10 04:15:30;;;;;;;3.73;2.80;;;;;;;17.74;65.80;99829.88;5094834;28;20252;-64
2023/09/10 04:17:57;;;;;;;5.77;2.77;;;;;;;17.82;65.07;99840.28;5094635;28;20268;-65
2023/09/10 04:20:23;;;;;;;2.53;2.33;;;;;;;17.85;65.29;99842.50;5094661;28;20252;-65
2023/09/10 04:22:50;;;;;;;4.53;2.80;;;;;;;17.95;64.76;99848.09;5094804;28;20192;-65
2023/09/10 04:25:17;;;;;;;3.03;2.73;;;;;;;17.89;64.55;99844.47;5094319;28;20256;-65
2023/09/10 04:27:43;;;;;;;2.80;2.60;;;;;;;17.89;64.82;99844.47;5094099;28;20576;-65
2023/09/10 04:30:10;;;;;;;4.80;3.00;;;;;;;18.01;64.46;99847.19;5094078;28;20699;-65
2023/09/10 04:32:38;;;;;;;4.23;2.57;;;;;;;18.26;63.95;99855.78;5094428;28;20191;-64
2023/09/10 04:35:06;;;;;;;2.57;2.37;;;;;;;18.59;63.54;99858.66;5094100;28;20192;-65
2023/09/10 04:37:34;;;;;;;8.23;2.90;;;;;;;18.86;63.41;99851.66;5094076;28;20248;-65
2023/09/10 04:40:05;;;;;;;5.40;2.70;;;;;;;19.05;61.49;99855.78;5094081;28;20290;-66
2023/09/10 04:42:32;;;;;;;5.10;2.40;;;;;;;19.08;60.18;99855.31;5094146;28;20271;-65
2023/09/10 04:44:58;;;;;;;5.83;2.67;;;;;;;19.24;59.92;99854.56;5093841;28;20574;-65
2023/09/10 04:47:25;;;;;;;5.20;2.40;;;;;;;19.45;58.99;99856.53;5093570;28;21110;-65
2023/09/10 04:49:53;;;;;;;3.50;2.60;;;;;;;19.67;57.78;99857.41;5094159;28;20628;-65
2023/09/10 04:52:20;;;;;;;2.63;2.43;;;;;;;19.91;56.78;99858.88;5093948;28;20191;-65
2023/09/10 04:54:46;;;;;;;5.43;2.83;;;;;;;20.12;56.24;99858.13;5093511;28;20195;-65
2023/09/10 04:57:13;;;;;;;3.50;2.23;;;;;;;20.57;54.34;99850.63;5093522;28;20191;-66
2023/09/10 04:59:40;;;;;;;7.77;2.47;;;;;;;20.90;52.54;99858.56;5093182;28;20218;-66
2023/09/10 05:02:06;;;;;;;3.53;2.77;;;;;;;20.93;52.31;99859.97;5093039;28;20196;-66
2023/09/10 05:04:33;;;;;;;2.87;2.67;;;;;;;21.02;52.03;99853.88;5093034;28;20221;-66
2023/09/10 05:07:01;;;;;;;4.60;2.70;;;;;;;21.17;52.39;99862.13;5092815;28;20496;-67
2023/09/10 05:09:28;;;;;;;5.10;2.80;;;;;;;21.57;51.14;99862.50;5093393;28;20195;-67
2023/09/10 05:11:56;;;;;;;5.37;2.70;;;;;;;21.88;49.59;99858.16;5093541;28;20273;-67
2023/09/10 05:14:23;;;;;;;4.13;2.70;;;;;;;22.15;48.51;99862.41;5093392;28;20279;-67
2023/09/10 05:16:50;;;;;;;6.63;2.67;;;;;;;22.68;48.09;99864.84;5093489;28;20240;-67
2023/09/10 05:19:16;;;;;;;4.63;2.67;;;;;;;22.70;46.51;99865.38;5092826;28;20219;-67
2023/09/10 05:21:43;;;;;;;2.33;2.20;;;;;;;22.78;46.22;99864.88;5092846;28;20256;-67
2023/09/10 05:24:11;;;;;;;2.33;2.23;;;;;;;22.97;45.79;99857.88;5092882;28;20257;-67
2023/09/10 05:26:38;;;;;;;2.80;2.60;;;;;;;23.16;46.00;99856.28;5092748;28;20196;-67
2023/09/10 05:29:05;;;;;;;3.00;2.80;;;;;;;23.26;45.55;99856.34;5093288;28;20623;-67
2023/09/10 05:31:32;;;;;;;2.70;2.50;;;;;;;;;;5093094;28;20192;-67
2023/09/10 05:33:58;;;;;;;2.57;2.37;;;;;;;23.44;44.93;99861.22;5092665;28;20196;-67
2023/09/10 05:36:25;;;;;;;12.57;3.47;;;;;;;23.47;45.25;99860.69;5092605;28;20655;-67
2023/09/10 05:38:52;;;;;;;3.27;2.60;;;;;;;23.51;44.91;99858.25;5092155;28;20718;-68
2023/09/10 05:41:20;;;;;;;24.27;3.77;;;;;;;23.77;43.60;99857.16;5092955;28;20690;-67
2023/09/10 05:43:47;;;;;;;3.03;2.20;;;;;;;23.83;43.24;99862.31;5091939;28;20256;-67
2023/09/10 05:46:13;;;;;;;2.97;2.73;;;;;;;24.08;42.28;99859.59;5092569;28;20200;-68
2023/09/10 05:48:40;;;;;;;3.87;2.10;;;;;;;24.09;42.07;99863.94;5092535;28;20230;-67
2023/09/10 05:51:07;;;;;;;6.33;2.70;;;;;;;24.15;42.32;99857.41;5092495;28;20713;-68
2023/09/10 05:53:33;;;;;;;4.23;3.07;;;;;;;24.36;41.00;99867.13;5092765;28;20203;-68
2023/09/10 05:56:03;;;;;;;2.53;2.40;;;;;;;24.66;40.22;99867.03;5092806;28;20257;-68
2023/09/10 05:58:31;;;;;;;2.70;2.50;;;;;;;24.70;40.09;99868.09;5092429;28;20284;-68
2023/09/10 06:00:58;;;;;;;2.67;2.47;;;;;;;25.06;39.26;99867.94;5092818;28;20194;-68
2023/09/10 06:03:24;;;;;;;5.00;2.50;;;;;;;25.46;38.63;99867.66;5092349;28;20279;-68
2023/09/10 06:05:51;;;;;;;2.57;2.37;;;;;;;25.53;38.72;99857.28;5092039;28;20296;-68
2023/09/10 06:08:18;;;;;;;10.37;3.23;;;;;;;26.17;37.95;99865.97;5091419;28;20671;-68
2023/09/10 06:10:44;;;;;;;3.03;2.70;;;;;;;26.37;36.56;99877.44;5091823;28;20242;-68
2023/09/10 06:13:11;;;;;;;3.03;2.33;;;;;;;26.24;35.96;99874.59;5092012;28;20188;-68
2023/09/10 06:15:40;;;;;;;4.13;2.40;;;;;;;26.62;36.02;99881.84;5092424;28;20195;-68
2023/09/10 06:18:07;;;;;;;4.87;2.87;;;;;;;26.54;35.79;99882.44;5091920;28;20218;-68
2023/09/10 06:20:34;;;;;;;2.40;2.20;;;;;;;26.38;35.82;99884.50;5092318;28;20244;-67
2023/09/10 06:23:01;;;;;;;5.67;2.67;;;;;;;26.32;35.23;99882.97;5091819;28;20190;-67
2023/09/10 06:25:28;;;;;;;4.00;2.40;;;;;;;26.24;35.86;99880.88;5091745;28;20253;-67
2023/09/10 06:27:55;;;;;;;3.57;2.57;;;;;;;26.40;35.28;99878.78;5092289;28;20195;-67
2023/09/10 06:30:22;;;;;;;2.90;2.60;;;;;;;26.33;35.30;99881.06;5092051;28;20284;-67
2023/09/10 06:32:50;;;;;;;3.53;2.33;;;;;;;26.26;36.75;99881.41;5091011;28;20253;-67
2023/09/10 06:35:17;;;;;;;4.33;2.47;;;;;;;26.68;35.86;99888.84;5092004;28;20572;-67
2023/09/10 06:37:44;;;;;;;3.53;2.47;;;;;;;26.76;35.59;99890.91;5091651;28;20195;-67
2023/09/10 06:40:13;;;;;;;2.90;2.67;;;;;;;27.34;35.25;99889.59;5091725;28;20235;-68
2023/09/10 06:42:40;;;;;;;4.60;2.63;;;;;;;27.75;33.79;99887.84;5091474;28;20194;-67
2023/09/10 06:45:07;;;;;;;2.90;2.33;;;;;;;27.73;32.74;99885.41;5091603;28;20252;-68
2023/09/10 06:47:34;;;;;;;4.03;2.57;;;;;;;27.69;32.68;99894.50;5091364;28;20686;-68
2023/09/10 06:50:02;;;;;;;2.73;2.27;;;;;;;27.66;32.98;99889.63;5091506;28;20621;-68
2023/09/10 06:52:29;;;;;;;6.23;2.67;;;;;;;28.21;33.14;99888.66;5091308;28;20194;-68
2023/09/10 06:54:55;;;;;;;4.60;2.20;;;;;;;28.82;31.85;99880.91;5091399;28;20191;-68
2023/09/10 06:57:22;;;;;;;5.17;2.47;;;;;;;29.40;31.32;99881.03;5091477;28;20224;-68
2023/09/10 06:59:49;;;;;;;4.97;2.30;;;;;;;29.82;29.32;99889.59;5091670;28;20223;-68
2023/09/10 07:02:15;;;;;;;2.30;2.20;;;;;;;29.74;29.93;99881.31;5091669;28;20192;-68
2023/09/10 07:04:47;;;;;;;2.63;2.37;;;;;;;30.13;30.29;99889.63;5091655;28;20203;-68
2023/09/10 07:07:15;;;;;;;2.67;2.47;;;;;;;30.33;28.69;99887.16;5087323;28;20196;-68
2023/09/10 07:09:42;;;;;;;4.00;2.70;;;;;;;30.72;28.02;99884.44;5071730;28;20200;-68
2023/09/10 07:12:09;;;;;;;3.00;2.00;;;;;;;31.03;27.39;99887.88;5071214;28;20196;-68
2023/09/10 07:14:36;;;;;;;4.70;2.70;;;;;;;31.36;27.71;99886.31;5071250;28;20625;-68
2023/09/10 07:17:02;;;;;;;3.97;2.70;;;;;;;31.54;27.19;99887.94;5071332;28;20196;-68
2023/09/10 07:19:29;;;;;;;4.50;2.90;;;;;;;31.64;26.11;99889.56;5075216;28;20223;-69
2023/09/10 07:21:57;;;;;;;2.60;2.10;;;;;;;31.63;26.57;99886.00;5075028;28;20200;-69
2023/09/10 07:24:25;;;;;;;9.00;2.90;;;;;;;31.88;25.84;99881.59;5075237;28;20192;-68
2023/09/10 07:26:52;;;;;;;6.80;2.50;;;;;;;32.09;25.53;99886.09;5074816;28;20200;-68
2023/09/10 07:29:19;;;;;;;10.77;2.43;;;;;;;32.36;25.44;99884.91;5074721;28;20253;-68
2023/09/10 07:31:45;;;;;;;5.33;2.40;;;;;;;32.62;24.21;99883.63;5074619;28;20237;-68
2023/09/10 07:34:12;;;;;;;2.30;2.10;;;;;;;32.59;24.50;99881.53;5074509;28;20289;-68
2023/09/10 07:36:39;;;;;;;2.30;2.00;;;;;;;32.48;23.90;99888.56;5074862;28;20204;-68
2023/09/10 07:39:06;;;;;;;6.10;2.63;;;;;;;32.13;24.39;99880.75;5074353;28;20236;-68
2023/09/10 07:41:34;;;;;;;4.20;2.10;;;;;;;32.08;24.87;99880.91;5074517;28;20314;-68
2023/09/10 07:44:02;;;;;;;3.90;1.87;;;;;;;32.33;24.92;99880.03;5074319;28;20713;-67
2023/09/10 07:46:29;;;;;;;4.27;2.07;;;;;;;32.23;24.49;99875.72;5075107;28;20192;-68
2023/09/10 07:48:55;;;;;;;10.07;2.57;;;;;;;32.26;24.80;99875.03;5074920;28;20200;-68
2023/09/10 07:51:22;;;;;;;2.70;2.10;;;;;;;32.42;24.09;99870.63;5074135;28;20196;-69
2023/09/10 07:53:49;;;;;;;2.63;2.43;;;;;;;32.32;23.78;99879.25;5074754;28;20191;-67
2023/09/10 07:56:16;;;;;;;4.03;2.40;;;;;;;32.43;24.23;99880.50;5074447;28;20192;-68
2023/09/10 07:58:44;;;;;;;4.37;2.13;;;;;;;32.70;24.25;99871.78;5074084;28;20711;-68
2023/09/10 08:01:10;;;;;;;2.20;2.10;;;;;;;33.00;24.09;99876.16;5074355;28;20196;-68
2023/09/10 08:03:38;;;;;;;3.03;2.10;;;;;;;33.26;24.15;99874.03;5074442;28;20192;-68
2023/09/10 08:06:05;;;;;;;3.50;1.83;;;;;;;33.64;23.85;99873.09;5074316;28;20192;-68
2023/09/10 08:08:32;;;;;;;4.70;2.35;;;;;;;33.33;22.51;99875.44;5089282;28;20630;-69
2023/09/10 08:10:58;;;;;;;9.40;1.80;;;;;;;32.92;22.61;99870.72;5094754;28;20268;-68
2023/09/10 08:13:25;;;;;;;18.10;3.13;;;;;;;32.87;22.36;99866.19;5094484;28;20256;-69
2023/09/10 08:15:53;;;;;;;2.25;2.05;;;;;;;33.05;22.90;99869.66;5094303;28;20195;-68
2023/09/10 08:18:20;;;;;;;3.67;2.10;;;;;;;33.27;22.72;99880.31;5094251;28;20187;-68
2023/09/10 08:20:47;;;;;;;2.83;1.77;;;;;;;33.53;22.30;99871.88;5094006;28;20706;-69
2023/09/10 08:23:13;;;;;;;4.72;1.65;;;;;;;33.73;22.50;99882.06;5094636;28;20211;-69
2023/09/10 08:25:40;;;;;;;2.35;2.15;;;;;;;33.86;21.59;99869.97;5093975;28;20191;-68
2023/09/10 08:28:07;;;;;;;4.32;2.13;;;;;;;33.98;21.27;99875.50;5094405;28;20327;-70
2023/09/10 08:30:34;;;;;;;3.30;2.20;;;;;;;34.12;21.70;99876.81;5093186;28;20249;-69
2023/09/10 08:33:02;;;;;;;4.82;2.33;;;;;;;34.30;21.26;99874.66;5093846;28;20198;-69
2023/09/10 08:35:43;;;;;;;3.88;2.40;;;;;;;34.44;22.02;99867.69;5093553;28;20207;-69
2023/09/10 08:38:10;;;;;;;2.42;2.22;;;;;;;34.59;22.08;99868.94;5093492;28;20233;-70
2023/09/10 08:40:40;;;;;;;4.47;2.78;;;;;;;34.67;20.82;99862.50;5093534;28;20698;-68
2023/09/10 08:43:11;;;;;;;6.22;2.72;;;;;;;34.22;22.03;99853.50;5093801;28;20191;-69
2023/09/10 08:45:38;;;;;;;3.38;2.63;;;;;;;34.33;22.30;99857.47;5093729;28;20259;-69
2023/09/10 08:48:07;;;;;;;3.17;2.88;;;;;;;34.11;21.81;99855.91;5093795;28;20191;-69
2023/09/10 08:50:35;;;;;;;3.25;2.80;;;;;;;33.94;22.18;99849.75;5093875;28;20199;-69
2023/09/10 08:53:04;;;;;;;7.65;2.47;;;;;;;33.89;22.11;99850.00;5093513;28;20191;-69
2023/09/10 08:55:31;;;;;;;3.60;2.60;;;;;;;33.56;22.38;99846.41;5093683;28;20256;-68
2023/09/10 08:57:59;;;;;;;5.95;2.63;;;;;;;32.81;23.29;99850.22;5093707;28;20187;-68
2023/09/10 09:00:27;;;;;;;3.13;2.87;;;;;;;32.85;24.07;99846.47;5093289;28;20227;-68
2023/09/10 09:02:54;;;;;;;4.50;2.47;;;;;;;33.23;23.48;99838.06;5093719;28;20249;-68
2023/09/10 09:05:22;;;;;;;3.15;2.20;;;;;;;33.56;23.26;99843.66;5093897;28;20196;-68
2023/09/10 09:07:54;;;;;;;3.72;2.45;;;;;;;33.58;23.03;99841.34;5084081;28;20188;-69
2023/09/10 09:10:25;;;;;;;3.30;3.10;;;;;;;33.59;22.98;99837.47;5073313;28;20214;-70
2023/09/10 09:12:55;;;;;;;6.07;2.40;;;;;;;33.79;23.02;99837.41;5073055;28;20539;-68
2023/09/10 09:15:22;;;;;;;7.20;2.70;;;;;;;33.36;23.23;99828.78;5072978;28;20196;-68
2023/09/10 09:17:50;;;;;;;2.65;2.45;;;;;;;33.26;23.63;99834.66;5073178;28;20192;-68
2023/09/10 09:20:19;;;;;;;3.13;2.72;;;;;;;33.38;23.44;99820.16;5073032;28;20216;-68
2023/09/10 09:22:50;;;;;;;5.93;2.20;;;;;;;33.61;23.97;99824.16;5073127;28;20191;-68
2023/09/10 09:25:17;;;;;;;2.97;2.50;;;;;;;33.54;23.38;99823.88;5072930;28;20185;-68
2023/09/10 09:27:44;;;;;;;17.98;4.05;;;;;;;33.07;24.25;99809.56;5072959;28;20196;-68
2023/09/10 09:30:12;;;;;;;5.65;2.83;;;;;;;33.13;24.56;99813.69;5073163;28;20253;-68
2023/09/10 09:32:39;;;;;;;6.70;3.15;;;;;;;33.29;24.33;99815.53;5072858;28;20290;-68
2023/09/10 09:35:10;;;;;;;4.90;2.90;;;;;;;33.28;23.95;99811.13;5073090;28;20223;-68
2023/09/10 09:37:37;;;;;;;5.30;3.10;;;;;;;32.89;24.71;99822.63;5072871;28;20189;-68
2023/09/10 09:40:09;;;;;;;6.53;3.00;;;;;;;32.89;24.16;99822.63;5072240;28;20573;-68
2023/09/10 09:42:35;;;;;;;5.70;3.00;;;;;;;32.87;24.00;99822.16;5071611;28;20192;-68
2023/09/10 09:45:03;;;;;;;7.82;3.17;;;;;;;32.89;24.15;99811.63;5072814;28;20188;-68
2023/09/10 09:47:31;;;;;;;4.57;3.20;;;;;;;33.11;23.89;99804.97;5072491;28;20196;-68
2023/09/10 09:49:58;;;;;;;4.68;3.00;;;;;;;33.31;23.94;99804.13;5072325;28;20196;-68
2023/09/10 09:52:25;;;;;;;3.47;3.17;;;;;;;33.52;23.59;99804.13;5072353;28;20200;-68
2023/09/10 09:54:52;;;;;;;4.82;2.58;;;;;;;33.77;23.00;99806.63;5072035;28;20269;-68
2023/09/10 09:57:20;;;;;;;5.75;2.80;;;;;;;33.61;23.39;99810.38;5072118;28;20196;-68
2023/09/10 09:59:49;;;;;;;3.33;3.03;;;;;;;33.69;23.61;99803.97;5072515;28;20216;-68
2023/09/10 10:02:19;;;;;;;6.32;3.42;;;;;;;33.45;23.96;99801.13;5071932;28;20196;-68
2023/09/10 10:04:46;;;;;;;4.05;2.70;;;;;;;33.29;24.20;99796.22;5071693;28;20191;-68
2023/09/10 10:07:14;;;;;;;6.00;2.97;;;;;;;33.09;24.30;99797.06;5075725;28;20240;-68
2023/09/10 10:09:42;;;;;;;2.92;2.80;;;;;;;33.24;23.95;99807.44;5091812;28;20373;-68
2023/09/10 10:12:09;;;;;;;4.07;3.10;;;;;;;33.08;24.08;99803.69;5091552;28;20195;-68
2023/09/10 10:14:38;;;;;;;3.10;2.78;;;;;;;33.23;23.83;99797.56;5092191;28;20260;-68
2023/09/10 10:17:06;;;;;;;3.72;2.88;;;;;;;33.07;23.86;99793.81;5091535;28;20186;-68
2023/09/10 10:19:34;;;;;;;6.05;2.75;;;;;;;33.23;23.96;99780.22;5091504;28;20215;-68
2023/09/10 10:22:04;;;;;;;3.70;2.92;;;;;;;33.21;24.00;99786.09;5091535;28;20286;-68
2023/09/10 10:24:32;;;;;;;4.55;2.83;;;;;;;33.35;24.25;99788.56;5091674;28;20248;-68
2023/09/10 10:27:02;;;;;;;2.70;2.35;;;;;;;33.46;24.02;99780.69;5091748;28;20187;-69
2023/09/10 10:29:30;;;;;;;4.07;2.85;;;;;;;33.61;23.63;99775.34;5091351;28;20218;-69
2023/09/10 10:32:02;;;;;;;5.10;3.10;;;;;;;32.80;24.03;99788.88;5091403;28;20282;-69
2023/09/10 10:34:36;;;;;;;5.18;3.22;;;;;;;32.42;25.20;99782.59;5091271;28;20694;-69
2023/09/10 10:37:12;;;;;;;4.07;2.85;;;;;;;32.63;24.79;99779.91;5091820;28;20280;-69
2023/09/10 10:39:46;;;;;;;5.27;3.37;;;;;;;32.64;24.57;99779.56;5091983;28;20320;-69
2023/09/10 10:42:19;;;;;;;4.80;4.38;;;;;;;32.73;24.49;99777.56;5091419;28;20227;-68
2023/09/10 10:44:45;;;;;;;3.97;3.78;;;;;;;32.78;24.39;99777.34;5091844;28;20187;-68
2023/09/10 10:47:19;;;;;;;6.13;2.90;;;;;;;32.88;24.14;99768.72;5091218;28;20196;-68
2023/09/10 10:49:52;;;;;;;5.83;3.00;;;;;;;32.87;24.13;99772.59;5091530;28;20186;-68
2023/09/10 10:52:23;;;;;;;3.73;3.40;;;;;;;32.95;24.26;99774.47;5091380;28;20219;-68
2023/09/10 10:54:52;;;;;;;4.40;2.78;;;;;;;33.08;24.47;99772.63;5091515;28;20184;-68
2023/09/10 10:57:20;;;;;;;2.85;2.65;;;;;;;32.94;24.41;99761.88;5091373;28;20226;-68
2023/09/10 10:59:47;;;;;;;8.60;3.00;;;;;;;33.01;24.61;99755.81;5090922;28;20760;-68
2023/09/10 11:02:21;;;;;;;4.50;2.80;;;;;;;33.03;24.73;99768.09;5091169;28;20489;-69
2023/09/10 11:04:56;;;;;;;3.50;2.87;;;;;;;32.60;24.83;99762.09;5091470;28;20183;-68
2023/09/10 11:07:23;;;;;;;3.33;3.00;;;;;;;32.48;24.42;99753.78;5085574;28;20191;-68
2023/09/10 11:09:50;;;;;;;5.63;3.28;;;;;;;32.20;24.70;99747.13;5071025;28;20203;-69
2023/09/10 11:12:17;;;;;;;7.60;3.57;;;;;;;32.14;24.93;99737.44;5070842;28;20196;-68
2023/09/10 11:15:12;;;;;;;6.10;2.87;;;;;;;32.21;24.83;99732.22;5071367;28;20321;-68
2023/09/10 11:17:40;;;;;;;2.87;2.67;;;;;;;32.16;25.09;99735.16;5071288;28;20184;-68
2023/09/10 11:20:08;;;;;;;3.50;3.00;;;;;;;32.21;24.94;99718.47;5070872;28;20220;-68
2023/09/10 11:23:08;;;;;;;4.87;3.53;;;;;;;31.79;25.54;99721.44;5071325;28;20196;-68
2023/09/10 11:25:35;;;;;;;5.80;3.60;;;;;;;31.60;25.31;99719.06;5071043;28;20671;-68
2023/09/10 11:28:03;;;;;;;4.30;3.90;;;;;;;31.55;25.72;99707.44;5071158;28;20265;-68
2023/09/10 11:30:30;;;;;;;3.80;3.20;;;;;;;31.27;26.24;99720.75;5071061;28;20239;-68
2023/09/10 11:33:30;;;;;;;5.00;3.07;;;;;;;31.10;26.27;99717.19;5071083;28;20575;-68
2023/09/10 11:35:59;;;;;;;5.80;3.33;;;;;;;31.27;26.02;99712.53;5070826;28;20279;-69
2023/09/10 11:38:29;;;;;;;3.33;3.00;;;;;;;31.08;26.11;99720.31;5070822;28;20575;-68